sensor_id;sensor_type;location;lat;lon;timestamp;P1;durP1;ratioP1;P2;durP2;ratioP2
7563;SDS011;3823;53.586;10.040;2022-08-19T00:01:22;11.18;;;10.15;;
7563;SDS011;3823;53.586;10.040;2022-08-19T00:03:48;14.38;;;10.88;;
7563;SDS011;3823;53.586;10.040;2022-08-19T00:06:14;11.15;;;10.02;;
7563;SDS011;3823;53.586;10.040;2022-08-19T00:08:40;11.13;;;10.00;;
7563;SDS011;3823;53.586;10.040;2022-08-19T00:11:05;14.38;;;9.93;;
7563;SDS011;3823;53.586;10.040;2022-08-19T00:13:32;11.88;;;10.27;;
7563;SDS011;3823;53.586;10.040;2022-08-19T00:15:58;16.65;;;12.57;;
7563;SDS011;3823;53.586;10.040;2022-08-19T00:18:24;18.17;;;12.90;;
7563;SDS011;3823;53.586;10.040;2022-08-19T00:20:50;15.80;;;12.85;;
7563;SDS011;3823;53.586;10.040;2022-08-19T00:23:16;17.48;;;14.25;;
7563;SDS011;3823;53.586;10.040;2022-08-19T00:25:41;15.18;;;13.55;;
7563;SDS011;3823;53.586;10.040;2022-08-19T00:28:07;16.65;;;14.20;;
7563;SDS011;3823;53.586;10.040;2022-08-19T00:30:33;21.70;;;15.63;;
7563;SDS011;3823;53.586;10.040;2022-08-19T00:32:58;21.13;;;16.08;;
7563;SDS011;3823;53.586;10.040;2022-08-19T00:35:24;20.50;;;15.85;;
7563;SDS011;3823;53.586;10.040;2022-08-19T00:37:52;23.88;;;16.42;;
7563;SDS011;3823;53.586;10.040;2022-08-19T00:40:17;20.13;;;14.93;;
7563;SDS011;3823;53.586;10.040;2022-08-19T00:42:44;18.95;;;13.95;;
7563;SDS011;3823;53.586;10.040;2022-08-19T00:45:15;21.48;;;16.35;;
7563;SDS011;3823;53.586;10.040;2022-08-19T00:47:42;18.27;;;14.52;;
7563;SDS011;3823;53.586;10.040;2022-08-19T00:50:08;21.23;;;16.08;;
7563;SDS011;3823;53.586;10.040;2022-08-19T00:52:37;19.88;;;16.52;;
7563;SDS011;3823;53.586;10.040;2022-08-19T00:55:10;27.95;;;18.00;;
7563;SDS011;3823;53.586;10.040;2022-08-19T00:57:39;22.83;;;16.58;;
7563;SDS011;3823;53.586;10.040;2022-08-19T01:00:08;20.30;;;16.88;;
7563;SDS011;3823;53.586;10.040;2022-08-19T01:02:36;23.35;;;16.42;;
7563;SDS011;3823;53.586;10.040;2022-08-19T01:05:05;23.55;;;16.70;;
7563;SDS011;3823;53.586;10.040;2022-08-19T01:07:34;21.67;;;15.65;;
7563;SDS011;3823;53.586;10.040;2022-08-19T01:10:03;20.15;;;15.60;;
7563;SDS011;3823;53.586;10.040;2022-08-19T01:12:31;25.40;;;16.27;;
7563;SDS011;3823;53.586;10.040;2022-08-19T01:14:57;20.48;;;15.73;;
7563;SDS011;3823;53.586;10.040;2022-08-19T01:17:24;20.83;;;16.45;;
7563;SDS011;3823;53.586;10.040;2022-08-19T01:19:50;21.13;;;15.48;;
7563;SDS011;3823;53.586;10.040;2022-08-19T01:25:05;17.27;;;14.90;;
7563;SDS011;3823;53.586;10.040;2022-08-19T01:27:38;22.75;;;15.32;;
7563;SDS011;3823;53.586;10.040;2022-08-19T01:30:06;17.85;;;15.57;;
7563;SDS011;3823;53.586;10.040;2022-08-19T01:32:32;18.63;;;14.90;;
7563;SDS011;3823;53.586;10.040;2022-08-19T01:34:58;18.90;;;14.85;;
7563;SDS011;3823;53.586;10.040;2022-08-19T01:37:26;19.88;;;15.05;;
7563;SDS011;3823;53.586;10.040;2022-08-19T01:39:51;21.52;;;15.63;;
7563;SDS011;3823;53.586;10.040;2022-08-19T01:42:17;21.75;;;15.27;;
7563;SDS011;3823;53.586;10.040;2022-08-19T01:44:43;17.17;;;14.25;;
7563;SDS011;3823;53.586;10.040;2022-08-19T01:47:08;17.63;;;14.40;;
7563;SDS011;3823;53.586;10.040;2022-08-19T01:49:35;19.25;;;15.45;;
7563;SDS011;3823;53.586;10.040;2022-08-19T01:52:03;22.10;;;15.35;;
7563;SDS011;3823;53.586;10.040;2022-08-19T01:54:30;21.75;;;15.73;;
7563;SDS011;3823;53.586;10.040;2022-08-19T01:57:07;23.45;;;15.70;;
7563;SDS011;3823;53.586;10.040;2022-08-19T01:59:35;22.20;;;15.25;;
7563;SDS011;3823;53.586;10.040;2022-08-19T02:02:01;21.48;;;16.20;;
7563;SDS011;3823;53.586;10.040;2022-08-19T02:04:32;20.10;;;15.02;;
7563;SDS011;3823;53.586;10.040;2022-08-19T02:06:58;19.27;;;15.90;;
7563;SDS011;3823;53.586;10.040;2022-08-19T02:09:24;23.00;;;16.02;;
7563;SDS011;3823;53.586;10.040;2022-08-19T02:11:50;19.05;;;14.30;;
7563;SDS011;3823;53.586;10.040;2022-08-19T02:14:15;25.30;;;16.70;;
7563;SDS011;3823;53.586;10.040;2022-08-19T02:16:41;24.50;;;16.08;;
7563;SDS011;3823;53.586;10.040;2022-08-19T02:19:06;20.83;;;16.45;;
7563;SDS011;3823;53.586;10.040;2022-08-19T02:21:32;22.88;;;16.60;;
7563;SDS011;3823;53.586;10.040;2022-08-19T02:23:59;22.20;;;16.55;;
7563;SDS011;3823;53.586;10.040;2022-08-19T02:26:25;22.70;;;15.38;;
7563;SDS011;3823;53.586;10.040;2022-08-19T02:28:51;19.42;;;15.38;;
7563;SDS011;3823;53.586;10.040;2022-08-19T02:31:19;23.00;;;15.05;;
7563;SDS011;3823;53.586;10.040;2022-08-19T02:33:47;24.98;;;17.63;;
7563;SDS011;3823;53.586;10.040;2022-08-19T02:36:14;24.60;;;16.38;;
7563;SDS011;3823;53.586;10.040;2022-08-19T02:38:40;22.13;;;15.75;;
7563;SDS011;3823;53.586;10.040;2022-08-19T02:41:12;21.92;;;15.40;;
7563;SDS011;3823;53.586;10.040;2022-08-19T02:43:56;22.95;;;16.33;;
7563;SDS011;3823;53.586;10.040;2022-08-19T02:46:26;21.77;;;16.65;;
7563;SDS011;3823;53.586;10.040;2022-08-19T02:48:59;29.67;;;15.90;;
7563;SDS011;3823;53.586;10.040;2022-08-19T02:51:28;23.85;;;15.80;;
7563;SDS011;3823;53.586;10.040;2022-08-19T02:53:56;26.48;;;17.10;;
7563;SDS011;3823;53.586;10.040;2022-08-19T02:56:23;28.38;;;17.70;;
7563;SDS011;3823;53.586;10.040;2022-08-19T02:58:51;32.63;;;18.40;;
7563;SDS011;3823;53.586;10.040;2022-08-19T03:01:50;32.67;;;17.80;;
7563;SDS011;3823;53.586;10.040;2022-08-19T03:04:12;24.52;;;17.20;;
7563;SDS011;3823;53.586;10.040;2022-08-19T03:06:40;25.42;;;18.90;;
7563;SDS011;3823;53.586;10.040;2022-08-19T03:09:08;29.98;;;19.48;;
7563;SDS011;3823;53.586;10.040;2022-08-19T03:11:34;31.55;;;18.42;;
7563;SDS011;3823;53.586;10.040;2022-08-19T03:14:00;27.00;;;18.08;;
7563;SDS011;3823;53.586;10.040;2022-08-19T03:16:29;27.75;;;19.08;;
7563;SDS011;3823;53.586;10.040;2022-08-19T03:18:56;30.55;;;18.73;;
7563;SDS011;3823;53.586;10.040;2022-08-19T03:21:25;26.90;;;18.98;;
7563;SDS011;3823;53.586;10.040;2022-08-19T03:23:56;30.20;;;19.17;;
7563;SDS011;3823;53.586;10.040;2022-08-19T03:26:23;34.83;;;20.48;;
7563;SDS011;3823;53.586;10.040;2022-08-19T03:28:49;33.05;;;20.75;;
7563;SDS011;3823;53.586;10.040;2022-08-19T03:31:16;32.15;;;18.80;;
7563;SDS011;3823;53.586;10.040;2022-08-19T03:33:43;32.55;;;19.60;;
7563;SDS011;3823;53.586;10.040;2022-08-19T03:36:11;28.40;;;17.35;;
7563;SDS011;3823;53.586;10.040;2022-08-19T03:38:41;28.10;;;19.25;;
7563;SDS011;3823;53.586;10.040;2022-08-19T03:41:11;36.17;;;19.83;;
7563;SDS011;3823;53.586;10.040;2022-08-19T03:43:41;29.77;;;18.27;;
7563;SDS011;3823;53.586;10.040;2022-08-19T03:46:09;34.55;;;18.90;;
7563;SDS011;3823;53.586;10.040;2022-08-19T03:48:36;30.92;;;17.80;;
7563;SDS011;3823;53.586;10.040;2022-08-19T03:51:04;33.65;;;18.58;;
7563;SDS011;3823;53.586;10.040;2022-08-19T03:53:31;38.83;;;18.73;;
7563;SDS011;3823;53.586;10.040;2022-08-19T03:55:58;34.65;;;18.23;;
7563;SDS011;3823;53.586;10.040;2022-08-19T03:58:28;25.83;;;15.88;;
7563;SDS011;3823;53.586;10.040;2022-08-19T04:00:55;31.92;;;18.27;;
7563;SDS011;3823;53.586;10.040;2022-08-19T04:03:22;26.52;;;16.48;;
7563;SDS011;3823;53.586;10.040;2022-08-19T04:05:49;27.10;;;16.05;;
7563;SDS011;3823;53.586;10.040;2022-08-19T04:08:15;47.85;;;18.13;;
7563;SDS011;3823;53.586;10.040;2022-08-19T04:10:43;30.35;;;16.98;;
7563;SDS011;3823;53.586;10.040;2022-08-19T04:13:09;28.55;;;16.50;;
7563;SDS011;3823;53.586;10.040;2022-08-19T04:15:38;39.60;;;17.55;;
7563;SDS011;3823;53.586;10.040;2022-08-19T04:18:06;23.55;;;15.32;;
7563;SDS011;3823;53.586;10.040;2022-08-19T04:20:37;30.02;;;16.10;;
7563;SDS011;3823;53.586;10.040;2022-08-19T04:23:04;26.45;;;17.45;;
7563;SDS011;3823;53.586;10.040;2022-08-19T04:25:34;38.97;;;18.10;;
7563;SDS011;3823;53.586;10.040;2022-08-19T04:28:04;22.30;;;16.20;;
7563;SDS011;3823;53.586;10.040;2022-08-19T04:30:30;27.02;;;16.98;;
7563;SDS011;3823;53.586;10.040;2022-08-19T04:32:55;33.80;;;18.98;;
7563;SDS011;3823;53.586;10.040;2022-08-19T04:35:21;31.08;;;18.35;;
7563;SDS011;3823;53.586;10.040;2022-08-19T04:37:47;34.67;;;19.63;;
7563;SDS011;3823;53.586;10.040;2022-08-19T04:40:12;31.63;;;21.58;;
7563;SDS011;3823;53.586;10.040;2022-08-19T04:42:57;31.13;;;20.63;;
7563;SDS011;3823;53.586;10.040;2022-08-19T04:45:22;43.88;;;19.88;;
7563;SDS011;3823;53.586;10.040;2022-08-19T04:47:48;32.00;;;20.88;;
7563;SDS011;3823;53.586;10.040;2022-08-19T04:50:14;38.35;;;17.73;;
7563;SDS011;3823;53.586;10.040;2022-08-19T04:52:40;33.78;;;21.73;;
7563;SDS011;3823;53.586;10.040;2022-08-19T04:55:08;43.83;;;22.63;;
7563;SDS011;3823;53.586;10.040;2022-08-19T04:57:35;35.22;;;21.20;;
7563;SDS011;3823;53.586;10.040;2022-08-19T05:00:05;41.67;;;21.70;;
7563;SDS011;3823;53.586;10.040;2022-08-19T05:02:33;34.50;;;21.65;;
7563;SDS011;3823;53.586;10.040;2022-08-19T05:04:58;31.85;;;21.38;;
7563;SDS011;3823;53.586;10.040;2022-08-19T05:07:25;37.72;;;21.83;;
7563;SDS011;3823;53.586;10.040;2022-08-19T05:09:51;31.30;;;20.85;;
7563;SDS011;3823;53.586;10.040;2022-08-19T05:12:17;44.58;;;21.55;;
7563;SDS011;3823;53.586;10.040;2022-08-19T05:14:43;34.13;;;20.70;;
7563;SDS011;3823;53.586;10.040;2022-08-19T05:17:10;35.70;;;20.52;;
7563;SDS011;3823;53.586;10.040;2022-08-19T05:19:36;38.83;;;22.65;;
7563;SDS011;3823;53.586;10.040;2022-08-19T05:22:20;43.38;;;23.23;;
7563;SDS011;3823;53.586;10.040;2022-08-19T05:24:59;44.30;;;24.45;;
7563;SDS011;3823;53.586;10.040;2022-08-19T05:27:44;40.58;;;24.15;;
7563;SDS011;3823;53.586;10.040;2022-08-19T05:30:10;38.67;;;25.10;;
7563;SDS011;3823;53.586;10.040;2022-08-19T05:32:37;44.63;;;23.73;;
7563;SDS011;3823;53.586;10.040;2022-08-19T05:35:04;41.80;;;25.25;;
7563;SDS011;3823;53.586;10.040;2022-08-19T05:37:30;46.10;;;23.67;;
7563;SDS011;3823;53.586;10.040;2022-08-19T05:39:56;34.65;;;22.13;;
7563;SDS011;3823;53.586;10.040;2022-08-19T05:42:21;35.15;;;23.30;;
7563;SDS011;3823;53.586;10.040;2022-08-19T05:44:48;32.83;;;22.70;;
7563;SDS011;3823;53.586;10.040;2022-08-19T05:47:14;40.92;;;23.27;;
7563;SDS011;3823;53.586;10.040;2022-08-19T05:49:40;42.97;;;24.17;;
7563;SDS011;3823;53.586;10.040;2022-08-19T05:52:08;37.65;;;22.65;;
7563;SDS011;3823;53.586;10.040;2022-08-19T05:54:39;34.90;;;21.13;;
7563;SDS011;3823;53.586;10.040;2022-08-19T05:57:06;29.88;;;22.10;;
7563;SDS011;3823;53.586;10.040;2022-08-19T05:59:32;33.25;;;22.17;;
7563;SDS011;3823;53.586;10.040;2022-08-19T06:02:00;36.25;;;23.75;;
7563;SDS011;3823;53.586;10.040;2022-08-19T06:04:26;39.33;;;22.48;;
7563;SDS011;3823;53.586;10.040;2022-08-19T06:06:52;31.40;;;22.40;;
7563;SDS011;3823;53.586;10.040;2022-08-19T06:09:19;33.33;;;19.98;;
7563;SDS011;3823;53.586;10.040;2022-08-19T06:11:47;29.50;;;19.83;;
7563;SDS011;3823;53.586;10.040;2022-08-19T06:14:19;34.28;;;23.48;;
7563;SDS011;3823;53.586;10.040;2022-08-19T06:16:48;30.85;;;20.45;;
7563;SDS011;3823;53.586;10.040;2022-08-19T06:19:17;34.47;;;19.73;;
7563;SDS011;3823;53.586;10.040;2022-08-19T06:21:46;30.38;;;20.95;;
7563;SDS011;3823;53.586;10.040;2022-08-19T06:24:14;29.92;;;19.45;;
7563;SDS011;3823;53.586;10.040;2022-08-19T06:26:42;29.20;;;20.23;;
7563;SDS011;3823;53.586;10.040;2022-08-19T06:29:09;28.08;;;18.77;;
7563;SDS011;3823;53.586;10.040;2022-08-19T06:31:36;27.92;;;20.73;;
7563;SDS011;3823;53.586;10.040;2022-08-19T06:34:05;33.30;;;21.40;;
7563;SDS011;3823;53.586;10.040;2022-08-19T06:36:32;36.42;;;22.10;;
7563;SDS011;3823;53.586;10.040;2022-08-19T06:39:00;30.02;;;20.88;;
7563;SDS011;3823;53.586;10.040;2022-08-19T06:41:33;30.65;;;21.30;;
7563;SDS011;3823;53.586;10.040;2022-08-19T06:44:01;33.05;;;21.23;;
7563;SDS011;3823;53.586;10.040;2022-08-19T06:46:28;39.35;;;22.17;;
7563;SDS011;3823;53.586;10.040;2022-08-19T06:48:54;32.75;;;21.65;;
7563;SDS011;3823;53.586;10.040;2022-08-19T06:51:20;34.75;;;22.33;;
7563;SDS011;3823;53.586;10.040;2022-08-19T06:53:50;36.90;;;21.60;;
7563;SDS011;3823;53.586;10.040;2022-08-19T06:56:17;32.05;;;21.40;;
7563;SDS011;3823;53.586;10.040;2022-08-19T06:58:46;32.50;;;22.10;;
7563;SDS011;3823;53.586;10.040;2022-08-19T07:01:12;34.88;;;22.80;;
7563;SDS011;3823;53.586;10.040;2022-08-19T07:03:38;33.90;;;22.60;;
7563;SDS011;3823;53.586;10.040;2022-08-19T07:06:04;42.60;;;24.60;;
7563;SDS011;3823;53.586;10.040;2022-08-19T07:08:35;36.70;;;23.55;;
7563;SDS011;3823;53.586;10.040;2022-08-19T07:11:05;38.28;;;23.15;;
7563;SDS011;3823;53.586;10.040;2022-08-19T07:13:31;42.15;;;23.92;;
7563;SDS011;3823;53.586;10.040;2022-08-19T07:16:04;34.17;;;23.15;;
7563;SDS011;3823;53.586;10.040;2022-08-19T07:18:35;43.42;;;26.75;;
7563;SDS011;3823;53.586;10.040;2022-08-19T07:21:08;45.83;;;23.55;;
7563;SDS011;3823;53.586;10.040;2022-08-19T07:23:41;32.00;;;22.88;;
7563;SDS011;3823;53.586;10.040;2022-08-19T07:26:08;37.90;;;22.42;;
7563;SDS011;3823;53.586;10.040;2022-08-19T07:28:37;35.90;;;22.90;;
7563;SDS011;3823;53.586;10.040;2022-08-19T07:31:12;36.67;;;21.65;;
7563;SDS011;3823;53.586;10.040;2022-08-19T07:33:40;35.65;;;23.00;;
7563;SDS011;3823;53.586;10.040;2022-08-19T07:36:08;36.30;;;21.88;;
7563;SDS011;3823;53.586;10.040;2022-08-19T07:38:36;43.90;;;23.77;;
7563;SDS011;3823;53.586;10.040;2022-08-19T07:41:04;31.63;;;22.20;;
7563;SDS011;3823;53.586;10.040;2022-08-19T07:43:30;35.17;;;21.60;;
7563;SDS011;3823;53.586;10.040;2022-08-19T07:45:56;40.45;;;23.90;;
7563;SDS011;3823;53.586;10.040;2022-08-19T07:48:26;33.22;;;20.90;;
7563;SDS011;3823;53.586;10.040;2022-08-19T07:50:53;39.38;;;21.25;;
7563;SDS011;3823;53.586;10.040;2022-08-19T07:53:20;28.52;;;20.02;;
7563;SDS011;3823;53.586;10.040;2022-08-19T07:55:47;29.95;;;21.00;;
7563;SDS011;3823;53.586;10.040;2022-08-19T07:58:14;28.50;;;21.00;;
7563;SDS011;3823;53.586;10.040;2022-08-19T08:00:42;31.48;;;21.02;;
7563;SDS011;3823;53.586;10.040;2022-08-19T08:03:09;30.73;;;21.00;;
7563;SDS011;3823;53.586;10.040;2022-08-19T08:05:35;34.88;;;22.45;;
7563;SDS011;3823;53.586;10.040;2022-08-19T08:08:19;33.35;;;21.75;;
7563;SDS011;3823;53.586;10.040;2022-08-19T08:10:47;28.58;;;20.80;;
7563;SDS011;3823;53.586;10.040;2022-08-19T08:13:13;28.95;;;19.00;;
7563;SDS011;3823;53.586;10.040;2022-08-19T08:15:38;32.65;;;23.38;;
7563;SDS011;3823;53.586;10.040;2022-08-19T08:18:04;31.85;;;20.13;;
7563;SDS011;3823;53.586;10.040;2022-08-19T08:20:30;25.98;;;18.55;;
7563;SDS011;3823;53.586;10.040;2022-08-19T08:22:56;27.63;;;17.85;;
7563;SDS011;3823;53.586;10.040;2022-08-19T08:25:40;24.83;;;17.63;;
7563;SDS011;3823;53.586;10.040;2022-08-19T08:28:06;30.05;;;20.60;;
7563;SDS011;3823;53.586;10.040;2022-08-19T08:30:33;26.67;;;19.33;;
7563;SDS011;3823;53.586;10.040;2022-08-19T08:33:01;30.50;;;18.17;;
7563;SDS011;3823;53.586;10.040;2022-08-19T08:35:27;27.65;;;19.23;;
7563;SDS011;3823;53.586;10.040;2022-08-19T08:37:54;25.45;;;16.35;;
7563;SDS011;3823;53.586;10.040;2022-08-19T08:40:22;28.73;;;18.45;;
7563;SDS011;3823;53.586;10.040;2022-08-19T08:43:08;26.10;;;19.05;;
7563;SDS011;3823;53.586;10.040;2022-08-19T08:46:00;29.75;;;19.05;;
7563;SDS011;3823;53.586;10.040;2022-08-19T08:48:37;24.67;;;18.23;;
7563;SDS011;3823;53.586;10.040;2022-08-19T08:51:13;21.00;;;14.75;;
7563;SDS011;3823;53.586;10.040;2022-08-19T08:53:43;19.92;;;13.23;;
7563;SDS011;3823;53.586;10.040;2022-08-19T08:56:11;18.13;;;12.55;;
7563;SDS011;3823;53.586;10.040;2022-08-19T09:01:34;11.98;;;10.48;;
7563;SDS011;3823;53.586;10.040;2022-08-19T09:04:05;10.68;;;9.50;;
7563;SDS011;3823;53.586;10.040;2022-08-19T09:06:37;15.43;;;10.82;;
7563;SDS011;3823;53.586;10.040;2022-08-19T09:09:18;16.05;;;12.90;;
7563;SDS011;3823;53.586;10.040;2022-08-19T09:17:11;20.23;;;12.98;;
7563;SDS011;3823;53.586;10.040;2022-08-19T09:19:57;22.83;;;14.45;;
7563;SDS011;3823;53.586;10.040;2022-08-19T09:22:31;21.13;;;15.55;;
7563;SDS011;3823;53.586;10.040;2022-08-19T09:24:57;15.25;;;12.55;;
7563;SDS011;3823;53.586;10.040;2022-08-19T09:27:23;16.77;;;12.57;;
7563;SDS011;3823;53.586;10.040;2022-08-19T09:29:51;20.38;;;14.35;;
7563;SDS011;3823;53.586;10.040;2022-08-19T09:32:18;20.25;;;13.02;;
7563;SDS011;3823;53.586;10.040;2022-08-19T09:34:44;20.00;;;13.75;;
7563;SDS011;3823;53.586;10.040;2022-08-19T09:37:10;17.65;;;12.73;;
7563;SDS011;3823;53.586;10.040;2022-08-19T09:39:37;26.42;;;14.90;;
7563;SDS011;3823;53.586;10.040;2022-08-19T09:42:03;16.90;;;12.32;;
7563;SDS011;3823;53.586;10.040;2022-08-19T09:44:30;20.38;;;13.35;;
7563;SDS011;3823;53.586;10.040;2022-08-19T09:46:55;16.75;;;12.63;;
7563;SDS011;3823;53.586;10.040;2022-08-19T09:49:21;23.05;;;13.25;;
7563;SDS011;3823;53.586;10.040;2022-08-19T09:51:50;20.23;;;12.27;;
7563;SDS011;3823;53.586;10.040;2022-08-19T09:54:16;24.60;;;14.30;;
7563;SDS011;3823;53.586;10.040;2022-08-19T09:56:42;22.35;;;15.50;;
7563;SDS011;3823;53.586;10.040;2022-08-19T09:59:09;17.40;;;13.25;;
7563;SDS011;3823;53.586;10.040;2022-08-19T10:01:36;24.50;;;14.05;;
7563;SDS011;3823;53.586;10.040;2022-08-19T10:04:02;18.00;;;14.20;;
7563;SDS011;3823;53.586;10.040;2022-08-19T10:06:33;28.80;;;16.38;;
7563;SDS011;3823;53.586;10.040;2022-08-19T10:08:59;17.30;;;13.43;;
7563;SDS011;3823;53.586;10.040;2022-08-19T10:11:26;17.83;;;15.02;;
7563;SDS011;3823;53.586;10.040;2022-08-19T10:13:52;21.38;;;14.50;;
7563;SDS011;3823;53.586;10.040;2022-08-19T10:16:19;20.15;;;13.55;;
7563;SDS011;3823;53.586;10.040;2022-08-19T10:18:48;17.77;;;13.90;;
7563;SDS011;3823;53.586;10.040;2022-08-19T10:21:33;18.48;;;14.27;;
7563;SDS011;3823;53.586;10.040;2022-08-19T10:24:00;19.10;;;13.15;;
7563;SDS011;3823;53.586;10.040;2022-08-19T10:26:30;24.50;;;13.25;;
7563;SDS011;3823;53.586;10.040;2022-08-19T10:28:57;22.30;;;13.35;;
7563;SDS011;3823;53.586;10.040;2022-08-19T10:31:26;26.40;;;15.30;;
7563;SDS011;3823;53.586;10.040;2022-08-19T10:33:53;18.50;;;11.70;;
7563;SDS011;3823;53.586;10.040;2022-08-19T10:36:23;24.80;;;13.05;;
7563;SDS011;3823;53.586;10.040;2022-08-19T10:38:55;19.50;;;13.90;;
7563;SDS011;3823;53.586;10.040;2022-08-19T10:41:25;18.55;;;12.00;;
7563;SDS011;3823;53.586;10.040;2022-08-19T10:43:53;16.75;;;12.68;;
7563;SDS011;3823;53.586;10.040;2022-08-19T10:46:20;18.60;;;13.93;;
7563;SDS011;3823;53.586;10.040;2022-08-19T10:48:47;19.67;;;14.52;;
7563;SDS011;3823;53.586;10.040;2022-08-19T10:51:14;16.70;;;13.35;;
7563;SDS011;3823;53.586;10.040;2022-08-19T10:53:59;25.35;;;15.02;;
7563;SDS011;3823;53.586;10.040;2022-08-19T10:56:25;22.27;;;14.65;;
7563;SDS011;3823;53.586;10.040;2022-08-19T10:59:10;22.55;;;14.63;;
7563;SDS011;3823;53.586;10.040;2022-08-19T11:01:38;22.30;;;15.43;;
7563;SDS011;3823;53.586;10.040;2022-08-19T11:04:04;24.90;;;16.60;;
7563;SDS011;3823;53.586;10.040;2022-08-19T11:06:33;26.85;;;14.48;;
7563;SDS011;3823;53.586;10.040;2022-08-19T11:08:58;23.08;;;16.77;;
7563;SDS011;3823;53.586;10.040;2022-08-19T11:11:25;26.15;;;15.63;;
7563;SDS011;3823;53.586;10.040;2022-08-19T11:13:50;31.63;;;16.85;;
7563;SDS011;3823;53.586;10.040;2022-08-19T11:16:19;20.27;;;14.90;;
7563;SDS011;3823;53.586;10.040;2022-08-19T11:18:49;22.23;;;16.23;;
7563;SDS011;3823;53.586;10.040;2022-08-19T11:21:18;26.13;;;17.00;;
7563;SDS011;3823;53.586;10.040;2022-08-19T11:23:49;22.95;;;15.48;;
7563;SDS011;3823;53.586;10.040;2022-08-19T11:26:17;23.08;;;15.93;;
7563;SDS011;3823;53.586;10.040;2022-08-19T11:28:44;23.88;;;16.42;;
7563;SDS011;3823;53.586;10.040;2022-08-19T11:31:11;24.73;;;15.82;;
7563;SDS011;3823;53.586;10.040;2022-08-19T11:33:45;22.90;;;15.77;;
7563;SDS011;3823;53.586;10.040;2022-08-19T11:36:12;19.77;;;14.75;;
7563;SDS011;3823;53.586;10.040;2022-08-19T11:38:38;21.30;;;14.63;;
7563;SDS011;3823;53.586;10.040;2022-08-19T11:41:06;16.30;;;13.80;;
7563;SDS011;3823;53.586;10.040;2022-08-19T11:43:32;22.13;;;14.05;;
7563;SDS011;3823;53.586;10.040;2022-08-19T11:45:59;19.50;;;13.52;;
7563;SDS011;3823;53.586;10.040;2022-08-19T11:48:25;18.60;;;12.40;;
7563;SDS011;3823;53.586;10.040;2022-08-19T11:50:52;15.57;;;12.02;;
7563;SDS011;3823;53.586;10.040;2022-08-19T11:53:20;13.98;;;12.48;;
7563;SDS011;3823;53.586;10.040;2022-08-19T11:55:49;16.30;;;13.02;;
7563;SDS011;3823;53.586;10.040;2022-08-19T11:58:18;15.95;;;11.57;;
7563;SDS011;3823;53.586;10.040;2022-08-19T12:00:44;15.35;;;11.43;;
7563;SDS011;3823;53.586;10.040;2022-08-19T12:03:11;15.27;;;12.13;;
7563;SDS011;3823;53.586;10.040;2022-08-19T12:05:38;19.17;;;14.05;;
7563;SDS011;3823;53.586;10.040;2022-08-19T12:08:05;15.63;;;13.05;;
7563;SDS011;3823;53.586;10.040;2022-08-19T12:10:31;16.40;;;12.88;;
7563;SDS011;3823;53.586;10.040;2022-08-19T12:12:57;15.82;;;11.52;;
7563;SDS011;3823;53.586;10.040;2022-08-19T12:15:23;13.15;;;10.23;;
7563;SDS011;3823;53.586;10.040;2022-08-19T12:17:48;13.55;;;11.32;;
7563;SDS011;3823;53.586;10.040;2022-08-19T12:20:14;13.82;;;12.15;;
7563;SDS011;3823;53.586;10.040;2022-08-19T12:22:42;12.88;;;10.88;;
7563;SDS011;3823;53.586;10.040;2022-08-19T12:25:09;13.05;;;11.73;;
7563;SDS011;3823;53.586;10.040;2022-08-19T12:27:35;15.85;;;12.60;;
7563;SDS011;3823;53.586;10.040;2022-08-19T12:30:02;12.77;;;11.48;;
7563;SDS011;3823;53.586;10.040;2022-08-19T12:32:29;12.50;;;11.20;;
7563;SDS011;3823;53.586;10.040;2022-08-19T12:34:54;13.00;;;11.70;;
7563;SDS011;3823;53.586;10.040;2022-08-19T12:37:20;12.57;;;11.18;;
7563;SDS011;3823;53.586;10.040;2022-08-19T12:39:46;11.40;;;9.02;;
7563;SDS011;3823;53.586;10.040;2022-08-19T12:42:12;12.75;;;11.55;;
7563;SDS011;3823;53.586;10.040;2022-08-19T12:44:39;10.77;;;9.73;;
7563;SDS011;3823;53.586;10.040;2022-08-19T12:47:06;12.73;;;11.43;;
7563;SDS011;3823;53.586;10.040;2022-08-19T12:49:33;12.52;;;9.93;;
7563;SDS011;3823;53.586;10.040;2022-08-19T12:51:59;10.82;;;9.82;;
7563;SDS011;3823;53.586;10.040;2022-08-19T12:54:26;13.60;;;10.32;;
7563;SDS011;3823;53.586;10.040;2022-08-19T12:56:52;9.63;;;8.80;;
7563;SDS011;3823;53.586;10.040;2022-08-19T12:59:17;12.30;;;10.73;;
7563;SDS011;3823;53.586;10.040;2022-08-19T13:01:44;14.95;;;10.18;;
7563;SDS011;3823;53.586;10.040;2022-08-19T13:04:10;9.98;;;9.07;;
7563;SDS011;3823;53.586;10.040;2022-08-19T13:06:36;12.80;;;10.15;;
7563;SDS011;3823;53.586;10.040;2022-08-19T13:09:02;12.80;;;10.73;;
7563;SDS011;3823;53.586;10.040;2022-08-19T13:11:29;25.02;;;10.38;;
7563;SDS011;3823;53.586;10.040;2022-08-19T13:13:57;13.35;;;9.68;;
7563;SDS011;3823;53.586;10.040;2022-08-19T13:16:23;11.55;;;9.80;;
7563;SDS011;3823;53.586;10.040;2022-08-19T13:18:49;13.02;;;10.57;;
7563;SDS011;3823;53.586;10.040;2022-08-19T13:21:19;9.45;;;8.75;;
7563;SDS011;3823;53.586;10.040;2022-08-19T13:23:47;9.20;;;8.27;;
7563;SDS011;3823;53.586;10.040;2022-08-19T13:26:13;15.52;;;10.55;;
7563;SDS011;3823;53.586;10.040;2022-08-19T13:28:40;10.70;;;8.80;;
7563;SDS011;3823;53.586;10.040;2022-08-19T13:31:26;11.20;;;10.10;;
7563;SDS011;3823;53.586;10.040;2022-08-19T13:34:15;10.52;;;9.50;;
7563;SDS011;3823;53.586;10.040;2022-08-19T13:36:41;10.45;;;9.45;;
7563;SDS011;3823;53.586;10.040;2022-08-19T13:39:07;9.75;;;8.90;;
7563;SDS011;3823;53.586;10.040;2022-08-19T13:41:34;13.48;;;10.77;;
7563;SDS011;3823;53.586;10.040;2022-08-19T13:44:00;9.95;;;8.98;;
7563;SDS011;3823;53.586;10.040;2022-08-19T13:46:26;11.65;;;9.73;;
7563;SDS011;3823;53.586;10.040;2022-08-19T13:48:54;9.68;;;8.88;;
7563;SDS011;3823;53.586;10.040;2022-08-19T13:51:21;9.77;;;8.75;;
7563;SDS011;3823;53.586;10.040;2022-08-19T13:53:47;9.88;;;8.98;;
7563;SDS011;3823;53.586;10.040;2022-08-19T13:56:13;9.52;;;8.63;;
7563;SDS011;3823;53.586;10.040;2022-08-19T13:58:41;10.50;;;9.50;;
7563;SDS011;3823;53.586;10.040;2022-08-19T14:01:07;12.07;;;10.02;;
7563;SDS011;3823;53.586;10.040;2022-08-19T14:03:34;11.40;;;10.30;;
7563;SDS011;3823;53.586;10.040;2022-08-19T14:05:59;12.13;;;10.40;;
7563;SDS011;3823;53.586;10.040;2022-08-19T14:08:26;10.45;;;9.55;;
7563;SDS011;3823;53.586;10.040;2022-08-19T14:10:53;13.70;;;9.68;;
7563;SDS011;3823;53.586;10.040;2022-08-19T14:13:20;11.43;;;9.90;;
7563;SDS011;3823;53.586;10.040;2022-08-19T14:15:47;10.13;;;9.10;;
7563;SDS011;3823;53.586;10.040;2022-08-19T14:18:13;12.02;;;9.88;;
7563;SDS011;3823;53.586;10.040;2022-08-19T14:20:40;10.07;;;9.10;;
7563;SDS011;3823;53.586;10.040;2022-08-19T14:23:06;11.32;;;10.23;;
7563;SDS011;3823;53.586;10.040;2022-08-19T14:25:32;10.20;;;9.38;;
7563;SDS011;3823;53.586;10.040;2022-08-19T14:27:58;11.98;;;10.77;;
7563;SDS011;3823;53.586;10.040;2022-08-19T14:30:27;11.73;;;10.70;;
7563;SDS011;3823;53.586;10.040;2022-08-19T14:32:57;11.88;;;10.77;;
7563;SDS011;3823;53.586;10.040;2022-08-19T14:35:24;11.95;;;10.85;;
7563;SDS011;3823;53.586;10.040;2022-08-19T14:37:51;13.20;;;11.85;;
7563;SDS011;3823;53.586;10.040;2022-08-19T14:40:21;12.90;;;11.25;;
7563;SDS011;3823;53.586;10.040;2022-08-19T14:42:54;12.02;;;10.80;;
7563;SDS011;3823;53.586;10.040;2022-08-19T14:45:24;13.00;;;11.85;;
7563;SDS011;3823;53.586;10.040;2022-08-19T14:47:51;22.80;;;12.18;;
7563;SDS011;3823;53.586;10.040;2022-08-19T14:50:17;12.82;;;11.68;;
7563;SDS011;3823;53.586;10.040;2022-08-19T14:52:43;13.20;;;11.93;;